createdAt,value
2017-12-21T00:02:03.337Z,3.77
2017-12-21T00:04:31.655Z,4.80
2017-12-21T00:06:59.993Z,4.23
2017-12-21T00:09:28.328Z,4.40
2017-12-21T00:11:57.426Z,4.63
2017-12-21T00:14:27.290Z,3.70
2017-12-21T00:16:55.622Z,4.50
2017-12-21T00:19:23.944Z,4.23
2017-12-21T00:21:52.285Z,4.60
2017-12-21T00:24:20.611Z,5.80
2017-12-21T00:26:48.949Z,6.30
2017-12-21T00:29:17.507Z,3.20
2017-12-21T00:31:45.836Z,3.40
2017-12-21T00:34:14.161Z,3.37
2017-12-21T00:36:43.371Z,3.60
2017-12-21T00:39:11.722Z,5.37
2017-12-21T00:41:40.065Z,3.50
2017-12-21T00:44:08.388Z,3.87
2017-12-21T00:46:36.724Z,3.17
2017-12-21T00:49:05.065Z,3.80
2017-12-21T00:51:33.401Z,4.40
2017-12-21T00:54:02.310Z,4.30
2017-12-21T00:56:31.416Z,5.80
2017-12-21T00:59:00.498Z,4.03
2017-12-21T01:01:28.824Z,5.37
2017-12-21T01:03:57.161Z,5.03
2017-12-21T01:06:25.501Z,4.50
2017-12-21T01:08:53.824Z,4.73
2017-12-21T01:11:22.920Z,4.23
2017-12-21T01:13:51.267Z,4.70
2017-12-21T01:16:19.600Z,5.67
2017-12-21T01:18:47.927Z,5.50
2017-12-21T01:21:16.273Z,6.23
2017-12-21T01:23:44.598Z,5.13
2017-12-21T01:26:12.946Z,7.80
2017-12-21T01:28:41.288Z,7.47
2017-12-21T01:31:09.632Z,4.73
2017-12-21T01:33:38.971Z,5.00
2017-12-21T01:36:07.324Z,5.10
2017-12-21T01:38:35.647Z,4.73
2017-12-21T01:41:04.005Z,5.03
2017-12-21T01:43:32.327Z,5.10
2017-12-21T01:46:00.651Z,5.43
2017-12-21T01:48:29.649Z,5.20
2017-12-21T01:50:57.960Z,4.40
2017-12-21T01:53:26.271Z,3.97
2017-12-21T01:55:54.605Z,4.53
2017-12-21T01:58:22.936Z,4.90
2017-12-21T02:00:51.282Z,3.70
2017-12-21T02:03:19.612Z,4.60
2017-12-21T02:05:47.948Z,3.27
2017-12-21T02:08:16.294Z,3.70
2017-12-21T02:10:44.610Z,3.10
2017-12-21T02:13:12.941Z,2.80
2017-12-21T02:15:41.263Z,3.53
2017-12-21T02:18:10.354Z,4.00
2017-12-21T02:20:38.688Z,5.30
2017-12-21T02:23:07.010Z,5.30
2017-12-21T02:25:36.100Z,4.57
2017-12-21T02:28:05.187Z,4.67
2017-12-21T02:30:33.511Z,3.43
2017-12-21T02:33:01.850Z,3.90
2017-12-21T02:35:30.957Z,3.10
2017-12-21T02:37:59.298Z,4.17
2017-12-21T02:40:27.621Z,3.67
2017-12-21T02:42:55.957Z,3.80
2017-12-21T02:45:24.297Z,3.40
2017-12-21T02:47:52.640Z,2.87
2017-12-21T02:50:21.732Z,3.30
2017-12-21T02:52:50.083Z,3.40
2017-12-21T02:55:18.397Z,2.93
2017-12-21T02:57:47.481Z,3.70
2017-12-21T03:00:15.808Z,3.20
2017-12-21T03:02:44.128Z,3.93
2017-12-21T03:05:12.451Z,3.90
2017-12-21T03:07:40.795Z,3.80
2017-12-21T03:10:09.144Z,3.67
2017-12-21T03:12:37.479Z,4.23
2017-12-21T03:15:05.806Z,4.23
2017-12-21T03:17:34.149Z,4.03
2017-12-21T03:20:02.517Z,3.80
2017-12-21T03:22:30.840Z,4.70
2017-12-21T03:25:00.340Z,3.87
2017-12-21T03:27:28.676Z,3.80
2017-12-21T03:29:57.005Z,3.90
2017-12-21T03:32:25.323Z,4.10
2017-12-21T03:34:53.667Z,4.50
2017-12-21T03:37:22.773Z,3.70
2017-12-21T03:39:51.104Z,3.80
2017-12-21T03:42:19.460Z,3.83
2017-12-21T03:44:47.782Z,3.40
2017-12-21T03:47:16.107Z,4.63
2017-12-21T03:49:44.445Z,4.40
2017-12-21T03:52:12.766Z,4.63
2017-12-21T03:54:41.113Z,5.30
2017-12-21T03:57:09.465Z,8.17
2017-12-21T03:59:37.797Z,7.23
2017-12-21T04:02:06.131Z,6.10
2017-12-21T04:04:34.465Z,4.13
2017-12-21T04:07:02.799Z,7.00
2017-12-21T04:09:31.453Z,6.47
2017-12-21T04:11:59.803Z,5.00
2017-12-21T04:14:28.145Z,4.70
2017-12-21T04:16:56.462Z,4.60
2017-12-21T04:19:24.793Z,3.73
2017-12-21T04:21:53.875Z,4.70
2017-12-21T04:24:22.940Z,4.33
2017-12-21T04:26:51.291Z,4.95
2017-12-21T04:29:19.624Z,5.00
2017-12-21T04:31:47.952Z,5.50
2017-12-21T04:34:16.296Z,5.70
2017-12-21T04:36:45.419Z,4.87
2017-12-21T04:39:13.748Z,4.33
2017-12-21T04:41:42.079Z,5.10
2017-12-21T04:44:10.403Z,5.13
2017-12-21T04:46:38.747Z,4.97
2017-12-21T04:49:07.075Z,4.60
2017-12-21T04:51:36.571Z,4.00
2017-12-21T04:54:04.909Z,4.03
2017-12-21T04:56:33.261Z,4.97
2017-12-21T04:59:01.593Z,4.73
2017-12-21T05:01:29.929Z,4.50
2017-12-21T05:03:58.260Z,3.80
2017-12-21T05:06:26.572Z,4.07
2017-12-21T05:08:54.895Z,4.37
2017-12-21T05:11:23.219Z,6.40
2017-12-21T05:13:51.534Z,5.10
2017-12-21T05:16:19.868Z,3.50
2017-12-21T05:18:48.204Z,3.33
2017-12-21T05:21:16.533Z,3.20
2017-12-21T05:23:44.850Z,3.33
2017-12-21T05:26:13.167Z,3.17
2017-12-21T05:28:42.279Z,2.50
2017-12-21T05:31:10.635Z,2.80
2017-12-21T05:33:39.342Z,3.60
2017-12-21T05:36:07.675Z,2.80
2017-12-21T05:38:35.986Z,3.07
2017-12-21T05:41:04.312Z,2.77
2017-12-21T05:43:32.634Z,2.60
2017-12-21T05:46:00.972Z,3.67
2017-12-21T05:48:29.302Z,3.90
2017-12-21T05:50:57.631Z,4.23
2017-12-21T05:53:25.924Z,3.43
2017-12-21T05:55:54.254Z,3.93
2017-12-21T05:58:22.592Z,4.70
2017-12-21T06:00:51.578Z,5.20
2017-12-21T06:03:20.091Z,4.33
2017-12-21T06:05:48.411Z,3.53
2017-12-21T06:08:16.735Z,4.57
2017-12-21T06:10:45.066Z,3.97
2017-12-21T06:13:13.390Z,5.50
2017-12-21T06:15:41.745Z,6.40
2017-12-21T06:18:10.097Z,5.87
2017-12-21T06:20:38.457Z,5.00
2017-12-21T06:23:06.789Z,3.40
2017-12-21T06:25:35.883Z,3.27
2017-12-21T06:28:04.233Z,2.90
2017-12-21T06:30:32.551Z,3.37
2017-12-21T06:33:01.631Z,3.97
2017-12-21T06:35:29.967Z,4.40
2017-12-21T06:37:58.301Z,3.70
2017-12-21T06:40:26.641Z,4.80
2017-12-21T06:42:54.955Z,4.67
2017-12-21T06:45:23.275Z,4.27
2017-12-21T06:47:51.618Z,3.40
2017-12-21T06:50:25.905Z,3.73
2017-12-21T06:52:54.237Z,2.90
2017-12-21T06:55:22.573Z,3.93
2017-12-21T06:57:50.927Z,3.00
2017-12-21T07:00:19.252Z,3.70
2017-12-21T07:02:47.594Z,4.53
2017-12-21T07:05:16.682Z,2.60
2017-12-21T07:07:45.002Z,2.80
2017-12-21T07:10:13.341Z,2.73
2017-12-21T07:12:41.663Z,2.90
2017-12-21T07:15:09.983Z,3.20
2017-12-21T07:17:38.319Z,2.97
2017-12-21T07:20:06.643Z,2.73
2017-12-21T07:22:34.989Z,2.30
2017-12-21T07:25:03.325Z,2.00
2017-12-21T07:27:31.678Z,2.80
2017-12-21T07:30:00.031Z,4.03
2017-12-21T07:32:28.382Z,5.50
2017-12-21T07:34:56.697Z,3.23
2017-12-21T07:37:25.245Z,3.10
2017-12-21T07:39:53.567Z,2.77
2017-12-21T07:42:22.857Z,8.10
2017-12-21T07:44:51.201Z,6.40
2017-12-21T07:47:19.523Z,3.45
2017-12-21T07:49:47.909Z,3.40
2017-12-21T07:52:17.973Z,3.47
2017-12-21T07:54:46.290Z,3.47
2017-12-21T07:57:14.629Z,3.67
2017-12-21T07:59:43.315Z,2.73
2017-12-21T08:02:12.837Z,3.67
2017-12-21T08:04:41.163Z,2.20
2017-12-21T08:07:09.505Z,3.10
2017-12-21T08:09:37.828Z,2.50
2017-12-21T08:12:06.167Z,2.00
2017-12-21T08:14:34.511Z,2.43
2017-12-21T08:17:02.863Z,2.73
2017-12-21T08:19:31.197Z,2.67
2017-12-21T08:21:59.531Z,2.20
2017-12-21T08:24:27.846Z,2.40
2017-12-21T08:26:56.194Z,2.13
2017-12-21T08:29:24.516Z,2.20
2017-12-21T08:31:53.723Z,1.90
2017-12-21T08:34:22.051Z,1.60
2017-12-21T08:36:50.394Z,2.20
2017-12-21T08:39:19.479Z,2.67
2017-12-21T08:41:47.802Z,2.40
2017-12-21T08:44:16.211Z,2.13
2017-12-21T08:46:44.641Z,1.43
2017-12-21T08:49:12.973Z,2.43
2017-12-21T08:51:41.331Z,2.50
2017-12-21T08:54:09.690Z,1.70
2017-12-21T08:56:38.032Z,1.70
2017-12-21T08:59:06.359Z,1.73
2017-12-21T09:01:34.683Z,4.90
2017-12-21T09:04:03.779Z,10.43
2017-12-21T09:06:32.111Z,4.65
2017-12-21T09:09:00.440Z,2.83
2017-12-21T09:11:29.530Z,1.70
2017-12-21T09:13:57.883Z,1.10
2017-12-21T09:16:26.231Z,1.40
2017-12-21T09:18:54.566Z,1.30
2017-12-21T09:21:23.668Z,1.30
2017-12-21T09:23:51.978Z,1.20
2017-12-21T09:26:20.297Z,0.70
2017-12-21T09:28:48.622Z,1.20
2017-12-21T09:31:16.984Z,0.90
2017-12-21T09:33:45.312Z,1.03
2017-12-21T09:36:13.863Z,1.00
2017-12-21T09:38:42.184Z,0.60
2017-12-21T09:41:10.509Z,1.90
2017-12-21T09:43:38.838Z,0.40
2017-12-21T09:46:07.206Z,0.80
2017-12-21T09:48:35.550Z,0.70
2017-12-21T09:51:03.871Z,0.80
2017-12-21T09:53:32.197Z,0.60
2017-12-21T09:56:00.537Z,0.60
2017-12-21T09:58:29.621Z,0.60
2017-12-21T10:00:57.960Z,0.77
2017-12-21T10:03:26.300Z,0.97
2017-12-21T10:05:54.658Z,0.95
2017-12-21T10:08:22.986Z,1.43
2017-12-21T10:10:51.324Z,1.10
2017-12-21T10:13:19.677Z,0.80
2017-12-21T10:15:48.012Z,0.90
2017-12-21T10:18:16.332Z,0.57
2017-12-21T10:20:44.670Z,1.00
2017-12-21T10:23:13.042Z,1.30
2017-12-21T10:25:42.118Z,1.37
2017-12-21T10:28:10.448Z,1.33
2017-12-21T10:30:38.790Z,0.97
2017-12-21T10:33:07.107Z,1.73
2017-12-21T10:35:35.427Z,0.90
2017-12-21T10:38:03.765Z,1.00
2017-12-21T10:40:32.912Z,1.10
2017-12-21T10:43:01.245Z,0.90
2017-12-21T10:45:29.641Z,1.50
2017-12-21T10:47:57.952Z,1.20
2017-12-21T10:50:26.281Z,0.93
2017-12-21T10:52:54.612Z,1.07
2017-12-21T10:55:22.970Z,1.30
2017-12-21T10:57:53.049Z,1.10
2017-12-21T11:00:22.325Z,1.03
2017-12-21T11:02:51.168Z,1.03
2017-12-21T11:05:20.265Z,0.90
2017-12-21T11:07:48.586Z,1.47
2017-12-21T11:10:16.925Z,1.43
2017-12-21T11:12:45.270Z,1.50
2017-12-21T11:15:13.595Z,1.80
2017-12-21T11:17:41.939Z,1.83
2017-12-21T11:20:10.741Z,1.23
2017-12-21T11:22:39.054Z,1.20
2017-12-21T11:25:08.153Z,1.10
2017-12-21T11:27:36.469Z,1.13
2017-12-21T11:30:04.787Z,1.10
2017-12-21T11:32:33.116Z,1.37
2017-12-21T11:35:01.459Z,1.10
2017-12-21T11:37:29.782Z,1.10
2017-12-21T11:39:58.111Z,1.00
2017-12-21T11:42:26.436Z,1.33
2017-12-21T11:44:54.758Z,1.70
2017-12-21T11:47:23.108Z,1.90
2017-12-21T11:49:52.199Z,1.57
2017-12-21T11:52:20.531Z,1.27
2017-12-21T11:54:48.850Z,1.10
2017-12-21T11:57:17.958Z,1.07
2017-12-21T11:59:46.271Z,0.80
2017-12-21T12:02:14.632Z,0.80
2017-12-21T12:04:42.965Z,0.90
2017-12-21T12:07:11.324Z,1.23
2017-12-21T12:09:39.642Z,1.57
2017-12-21T12:12:07.992Z,1.40
2017-12-21T12:14:36.332Z,2.80
2017-12-21T12:17:04.678Z,2.80
2017-12-21T12:19:33.004Z,2.70
2017-12-21T12:22:01.353Z,2.57
2017-12-21T12:24:29.744Z,2.10
2017-12-21T12:26:58.070Z,2.00
2017-12-21T12:29:26.409Z,1.43
2017-12-21T12:31:54.771Z,1.37
2017-12-21T12:34:23.090Z,1.30
2017-12-21T12:36:52.437Z,2.57
2017-12-21T12:39:23.859Z,1.83
2017-12-21T12:41:53.022Z,1.40
2017-12-21T12:44:28.017Z,1.87
2017-12-21T12:46:56.363Z,1.63
2017-12-21T12:49:36.061Z,2.27
2017-12-21T12:52:04.471Z,1.43
2017-12-21T12:54:32.821Z,1.20
2017-12-21T12:57:01.193Z,1.20
2017-12-21T12:59:29.519Z,1.40
2017-12-21T13:01:57.877Z,1.50
2017-12-21T13:04:26.219Z,1.63
2017-12-21T13:06:54.551Z,2.33
2017-12-21T13:09:22.879Z,1.73
2017-12-21T13:11:51.527Z,2.53
2017-12-21T13:14:19.867Z,3.13
2017-12-21T13:16:48.214Z,3.80
2017-12-21T13:19:16.586Z,3.37
2017-12-21T13:21:44.948Z,2.73
2017-12-21T13:24:13.270Z,4.10
2017-12-21T13:26:41.678Z,2.30
2017-12-21T13:29:10.011Z,2.63
2017-12-21T13:31:38.352Z,1.93
2017-12-21T13:34:07.461Z,2.30
2017-12-21T13:36:35.817Z,2.65
2017-12-21T13:39:04.175Z,10.53
2017-12-21T13:41:32.533Z,4.23
2017-12-21T13:44:00.855Z,3.00
2017-12-21T13:46:29.975Z,3.37
2017-12-21T13:48:58.312Z,3.60
2017-12-21T13:51:26.641Z,2.90
2017-12-21T13:53:54.984Z,3.33
2017-12-21T13:56:24.079Z,2.37
2017-12-21T13:58:52.416Z,2.33
2017-12-21T14:01:20.768Z,2.70
2017-12-21T14:03:49.091Z,4.27
2017-12-21T14:06:17.437Z,2.27
2017-12-21T14:08:45.763Z,3.67
2017-12-21T14:11:14.107Z,2.87
2017-12-21T14:13:42.437Z,2.90
2017-12-21T14:16:10.787Z,3.40
2017-12-21T14:18:39.133Z,2.63
2017-12-21T14:21:07.467Z,2.40
2017-12-21T14:23:36.577Z,3.30
2017-12-21T14:26:05.755Z,3.93
2017-12-21T14:28:34.863Z,3.30
2017-12-21T14:31:03.277Z,2.60
2017-12-21T14:33:31.612Z,4.77
2017-12-21T14:35:59.940Z,4.20
2017-12-21T14:38:28.304Z,3.23
2017-12-21T14:40:56.626Z,2.97
2017-12-21T14:43:24.953Z,4.00
2017-12-21T14:45:54.114Z,4.60
2017-12-21T14:48:22.516Z,3.60
2017-12-21T14:50:50.821Z,2.90
2017-12-21T14:53:19.137Z,2.40
2017-12-21T14:55:48.246Z,2.53
2017-12-21T14:58:16.581Z,3.00
2017-12-21T15:00:44.913Z,2.20
2017-12-21T15:03:13.250Z,1.70
2017-12-21T15:05:41.565Z,2.40
2017-12-21T15:08:09.879Z,2.10
2017-12-21T15:10:38.218Z,2.10
2017-12-21T15:13:06.534Z,0.70
2017-12-21T15:15:34.888Z,1.60
2017-12-21T15:18:03.249Z,1.63
2017-12-21T15:20:31.592Z,1.53
2017-12-21T15:22:59.973Z,1.00
2017-12-21T15:25:28.297Z,0.90
2017-12-21T15:27:56.641Z,1.17
2017-12-21T15:30:24.990Z,2.20
2017-12-21T15:32:53.349Z,2.60
2017-12-21T15:35:21.740Z,3.20
2017-12-21T15:37:50.070Z,4.13
2017-12-21T15:40:18.412Z,3.60
2017-12-21T15:42:46.810Z,2.30
2017-12-21T15:45:15.138Z,1.50
2017-12-21T15:47:43.459Z,1.97
2017-12-21T15:50:11.784Z,1.93
2017-12-21T15:52:40.750Z,2.70
2017-12-21T15:55:09.054Z,1.50
2017-12-21T15:57:37.393Z,1.73
2017-12-21T16:00:05.729Z,1.07
2017-12-21T16:02:34.051Z,1.20
2017-12-21T16:05:03.148Z,0.90
2017-12-21T16:07:31.557Z,0.90
2017-12-21T16:09:59.890Z,0.90
2017-12-21T16:12:28.218Z,1.53
2017-12-21T16:14:56.559Z,0.87
2017-12-21T16:17:25.676Z,0.93
2017-12-21T16:19:53.990Z,1.00
2017-12-21T16:22:22.324Z,0.90
2017-12-21T16:24:50.665Z,1.33
2017-12-21T16:27:18.994Z,0.80
2017-12-21T16:29:47.334Z,1.00
2017-12-21T16:32:16.449Z,0.73
2017-12-21T16:34:44.785Z,0.80
2017-12-21T16:37:13.128Z,1.33
2017-12-21T16:39:41.447Z,1.30
2017-12-21T16:42:09.844Z,0.70
2017-12-21T16:44:38.943Z,1.00
2017-12-21T16:47:09.130Z,0.77
2017-12-21T16:49:38.218Z,0.60
2017-12-21T16:52:06.540Z,1.20
2017-12-21T16:54:35.642Z,1.70
2017-12-21T16:57:03.967Z,0.77
2017-12-21T16:59:32.313Z,0.70
2017-12-21T17:02:01.596Z,0.83
2017-12-21T17:04:29.960Z,1.00
2017-12-21T17:06:59.058Z,0.67
2017-12-21T17:09:27.383Z,1.13
2017-12-21T17:11:55.733Z,1.10
2017-12-21T17:14:24.064Z,1.70
2017-12-21T17:16:52.386Z,1.43
2017-12-21T17:19:20.704Z,1.37
2017-12-21T17:21:49.042Z,1.40
2017-12-21T17:24:17.400Z,1.63
2017-12-21T17:26:45.757Z,2.20
2017-12-21T17:29:14.090Z,2.97
2017-12-21T17:31:42.422Z,2.97
2017-12-21T17:34:11.523Z,3.07
2017-12-21T17:36:41.401Z,2.80
2017-12-21T17:39:09.722Z,2.40
2017-12-21T17:41:38.812Z,2.27
2017-12-21T17:44:07.137Z,2.70
2017-12-21T17:46:35.496Z,3.00
2017-12-21T17:49:03.845Z,2.10
2017-12-21T17:51:32.979Z,2.57
2017-12-21T17:54:01.317Z,2.37
2017-12-21T17:56:29.693Z,1.53
2017-12-21T17:58:58.056Z,1.63
2017-12-21T18:01:26.439Z,0.93
2017-12-21T18:03:54.794Z,1.20
2017-12-21T18:06:23.276Z,1.60
2017-12-21T18:08:51.873Z,1.23
2017-12-21T18:11:21.420Z,2.07
2017-12-21T18:13:50.481Z,1.30
2017-12-21T18:16:18.845Z,1.08
2017-12-21T18:18:47.512Z,1.77
2017-12-21T18:21:16.031Z,1.27
2017-12-21T18:23:45.198Z,1.30
2017-12-21T18:26:13.565Z,1.00
2017-12-21T18:28:42.710Z,1.00
2017-12-21T18:31:12.104Z,1.87
2017-12-21T18:33:41.039Z,2.97
2017-12-21T18:36:09.961Z,2.40
2017-12-21T18:38:39.636Z,1.10
2017-12-21T18:41:09.417Z,1.33
2017-12-21T18:43:39.018Z,1.57
2017-12-21T18:46:08.443Z,2.13
2017-12-21T18:48:38.315Z,2.30
2017-12-21T18:51:08.119Z,2.90
2017-12-21T18:53:37.960Z,2.10
2017-12-21T18:56:07.642Z,1.30
2017-12-21T18:58:37.649Z,1.43
2017-12-21T19:01:07.800Z,3.87
2017-12-21T19:03:37.771Z,1.50
2017-12-21T19:06:07.921Z,1.17
2017-12-21T19:08:38.197Z,1.20
2017-12-21T19:11:08.824Z,1.27
2017-12-21T19:13:39.397Z,1.30
2017-12-21T19:16:09.244Z,1.37
2017-12-21T19:18:39.312Z,0.93
2017-12-21T19:21:12.709Z,2.85
2017-12-21T19:23:42.682Z,1.27
2017-12-21T19:26:12.558Z,0.90
2017-12-21T19:28:42.481Z,1.50
2017-12-21T19:31:12.391Z,1.70
2017-12-21T19:33:43.067Z,8.17
2017-12-21T19:36:13.176Z,2.13
2017-12-21T19:38:42.945Z,2.03
2017-12-21T19:41:12.819Z,2.13
2017-12-21T19:43:42.779Z,2.00
2017-12-21T19:46:12.719Z,4.17
2017-12-21T19:48:42.578Z,1.60
2017-12-21T19:51:12.487Z,1.97
2017-12-21T19:53:42.335Z,6.77
2017-12-21T19:56:12.163Z,4.93
2017-12-21T19:58:42.000Z,4.57
2017-12-21T20:01:12.772Z,4.33
2017-12-21T20:03:42.652Z,5.37
2017-12-21T20:06:12.498Z,2.80
2017-12-21T20:08:42.424Z,2.73
2017-12-21T20:11:12.349Z,2.53
2017-12-21T20:13:42.275Z,3.00
2017-12-21T20:16:12.086Z,2.30
2017-12-21T20:18:42.107Z,2.30
2017-12-21T20:21:12.833Z,2.63
2017-12-21T20:23:42.851Z,4.77
2017-12-21T20:26:14.840Z,4.13
2017-12-21T20:28:44.796Z,5.30
2017-12-21T20:31:14.808Z,8.30
2017-12-21T20:33:44.802Z,8.10
2017-12-21T20:36:14.690Z,8.33
2017-12-21T20:38:44.655Z,6.10
2017-12-21T20:41:14.537Z,9.80
2017-12-21T20:43:44.470Z,5.67
2017-12-21T20:46:14.353Z,11.10
2017-12-21T20:48:45.790Z,14.27
2017-12-21T20:51:15.641Z,13.43
2017-12-21T20:53:45.457Z,14.23
2017-12-21T20:56:16.112Z,2.87
2017-12-21T20:58:45.921Z,4.27
2017-12-21T21:01:15.932Z,6.83
2017-12-21T21:03:45.757Z,5.77
2017-12-21T21:06:15.821Z,2.90
2017-12-21T21:08:45.725Z,2.20
2017-12-21T21:11:15.562Z,4.33
2017-12-21T21:13:45.480Z,6.17
2017-12-21T21:16:16.124Z,8.20
2017-12-21T21:18:46.172Z,16.00
2017-12-21T21:21:16.135Z,13.40
2017-12-21T21:23:45.996Z,5.23
2017-12-21T21:26:15.911Z,3.70
2017-12-21T21:28:45.645Z,3.57
2017-12-21T21:31:15.424Z,2.90
2017-12-21T21:33:46.359Z,2.97
2017-12-21T21:36:16.303Z,4.97
2017-12-21T21:38:46.198Z,6.93
2017-12-21T21:41:16.011Z,11.20
2017-12-21T21:43:45.913Z,10.00
2017-12-21T21:46:15.732Z,12.60
2017-12-21T21:48:45.727Z,6.17
2017-12-21T21:51:16.377Z,5.10
2017-12-21T21:53:46.086Z,7.07
2017-12-21T21:56:15.930Z,6.43
2017-12-21T21:58:45.721Z,4.90
2017-12-21T22:01:15.653Z,7.40
2017-12-21T22:03:45.495Z,5.40
2017-12-21T22:06:15.316Z,6.53
2017-12-21T22:08:44.998Z,4.67
2017-12-21T22:11:14.279Z,1.77
2017-12-21T22:13:43.155Z,3.70
2017-12-21T22:16:11.693Z,1.70
2017-12-21T22:18:40.228Z,2.20
2017-12-21T22:21:08.635Z,2.30
2017-12-21T22:23:36.968Z,2.50
2017-12-21T22:26:05.311Z,2.07
2017-12-21T22:28:34.448Z,2.10
2017-12-21T22:31:02.843Z,2.67
2017-12-21T22:33:31.183Z,2.87
2017-12-21T22:35:59.533Z,2.60
2017-12-21T22:38:28.265Z,3.63
2017-12-21T22:40:56.602Z,2.50
2017-12-21T22:43:24.928Z,2.40
2017-12-21T22:45:53.252Z,1.90
2017-12-21T22:48:22.359Z,2.60
2017-12-21T22:50:50.770Z,4.10
2017-12-21T22:53:19.103Z,2.00
2017-12-21T22:55:48.213Z,4.07
2017-12-21T22:58:16.538Z,2.13
2017-12-21T23:00:44.863Z,2.30
2017-12-21T23:03:13.207Z,2.23
2017-12-21T23:05:41.531Z,2.60
2017-12-21T23:08:09.847Z,2.77
2017-12-21T23:10:38.202Z,3.00
2017-12-21T23:13:06.528Z,2.17
2017-12-21T23:15:34.854Z,3.47
2017-12-21T23:18:03.184Z,2.67
2017-12-21T23:20:31.559Z,3.20
2017-12-21T23:22:59.895Z,2.40
2017-12-21T23:25:28.219Z,2.10
2017-12-21T23:27:56.552Z,2.23
2017-12-21T23:30:24.870Z,3.03
2017-12-21T23:32:53.190Z,2.60
2017-12-21T23:35:21.517Z,3.33
2017-12-21T23:37:49.834Z,3.43
2017-12-21T23:40:18.929Z,3.70
2017-12-21T23:42:47.251Z,2.80
2017-12-21T23:45:15.581Z,3.63
2017-12-21T23:47:44.680Z,2.60
2017-12-21T23:50:13.694Z,8.30
2017-12-21T23:52:42.017Z,4.53
2017-12-21T23:55:10.366Z,5.50
2017-12-21T23:57:38.709Z,7.50
